createdAt,value
2019-01-17T00:01:47.945Z,94.80
2019-01-17T00:04:35.037Z,94.70
2019-01-17T00:07:21.358Z,94.60
2019-01-17T00:10:04.836Z,94.60
2019-01-17T00:12:44.297Z,94.60
2019-01-17T00:15:44.942Z,94.50
2019-01-17T00:18:33.090Z,94.40
2019-01-17T00:21:13.777Z,94.40
2019-01-17T00:23:54.405Z,94.40
2019-01-17T00:26:31.101Z,94.40
2019-01-17T00:29:28.353Z,94.30
2019-01-17T00:32:22.664Z,94.30
2019-01-17T00:35:16.622Z,94.40
2019-01-17T00:38:10.913Z,94.50
2019-01-17T00:41:04.871Z,94.60
2019-01-17T00:43:53.054Z,94.50
2019-01-17T00:46:34.729Z,94.50
2019-01-17T00:49:28.535Z,94.50
2019-01-17T00:52:14.901Z,94.60
2019-01-17T00:54:58.270Z,94.50
2019-01-17T00:57:39.521Z,94.40
2019-01-17T01:00:29.590Z,94.50
2019-01-17T01:03:20.586Z,94.30
2019-01-17T01:06:23.897Z,94.30
2019-01-17T01:09:01.724Z,94.10
2019-01-17T01:12:01.926Z,93.90
2019-01-17T01:14:41.294Z,93.80
2019-01-17T01:17:42.861Z,93.70
2019-01-17T01:20:34.589Z,93.60
2019-01-17T01:23:28.843Z,93.50
2019-01-17T01:26:15.593Z,93.60
2019-01-17T01:29:00.060Z,93.40
2019-01-17T01:31:48.209Z,93.10
2019-01-17T01:34:48.485Z,93.00
2019-01-17T01:37:30.203Z,92.90
2019-01-17T01:40:21.384Z,92.60
2019-01-17T01:43:27.634Z,92.40
2019-01-17T01:46:18.005Z,92.20
2019-01-17T01:49:04.907Z,92.00
2019-01-17T01:51:53.050Z,91.70
2019-01-17T01:54:22.312Z,91.50
2019-01-17T01:56:51.512Z,91.70
2019-01-17T01:59:20.632Z,91.50
2019-01-17T02:01:49.762Z,91.50
2019-01-17T02:04:18.940Z,91.30
2019-01-17T02:06:48.078Z,91.00
2019-01-17T02:09:17.508Z,91.10
2019-01-17T02:11:46.662Z,90.80
2019-01-17T02:14:15.885Z,91.00
2019-01-17T02:16:45.000Z,90.90
2019-01-17T02:19:14.154Z,90.90
2019-01-17T02:21:43.269Z,90.60
2019-01-17T02:24:12.378Z,91.00
2019-01-17T02:26:42.456Z,90.40
2019-01-17T02:29:11.662Z,90.60
2019-01-17T02:31:40.830Z,90.50
2019-01-17T02:34:09.934Z,90.20
2019-01-17T02:36:39.041Z,90.20
2019-01-17T02:39:08.842Z,90.20
2019-01-17T02:41:38.006Z,90.10
2019-01-17T02:44:07.189Z,90.00
2019-01-17T02:46:36.285Z,90.20
2019-01-17T02:49:05.529Z,90.00
2019-01-17T02:51:34.649Z,90.10
2019-01-17T02:54:04.061Z,90.10
2019-01-17T02:56:33.184Z,89.90
2019-01-17T02:59:02.326Z,89.70
2019-01-17T03:01:31.433Z,89.80
2019-01-17T03:04:00.557Z,89.80
2019-01-17T03:06:29.689Z,89.40
2019-01-17T03:08:58.801Z,89.30
2019-01-17T03:11:27.914Z,89.40
2019-01-17T03:13:57.067Z,89.40
2019-01-17T03:16:26.171Z,89.10
2019-01-17T03:18:55.275Z,88.90
2019-01-17T03:21:24.426Z,89.10
2019-01-17T03:23:53.589Z,88.70
2019-01-17T03:26:22.697Z,88.80
2019-01-17T03:28:51.805Z,88.90
2019-01-17T03:31:20.913Z,89.10
2019-01-17T03:33:50.025Z,89.00
2019-01-17T03:36:19.186Z,88.50
2019-01-17T03:38:48.294Z,88.60
2019-01-17T03:41:17.397Z,88.70
2019-01-17T03:43:46.629Z,88.50
2019-01-17T03:46:15.846Z,88.60
2019-01-17T03:48:44.940Z,87.40
2019-01-17T03:51:14.051Z,87.40
2019-01-17T03:53:43.250Z,86.90
2019-01-17T03:56:12.343Z,86.40
2019-01-17T03:58:41.462Z,86.50
2019-01-17T04:01:10.569Z,86.70
2019-01-17T04:03:39.697Z,85.80
2019-01-17T04:06:08.837Z,86.00
2019-01-17T04:08:37.943Z,86.10
2019-01-17T04:11:07.057Z,86.00
2019-01-17T04:13:36.185Z,85.90
2019-01-17T04:16:05.701Z,85.60
2019-01-17T04:18:34.845Z,85.80
2019-01-17T04:21:04.001Z,86.20
2019-01-17T04:23:33.107Z,86.10
2019-01-17T04:26:02.225Z,86.30
2019-01-17T04:28:31.350Z,86.20
2019-01-17T04:31:00.470Z,86.50
2019-01-17T04:33:29.605Z,85.80
2019-01-17T04:35:58.705Z,85.80
2019-01-17T04:38:27.809Z,86.10
2019-01-17T04:40:56.945Z,86.00
2019-01-17T04:43:26.049Z,86.00
2019-01-17T04:45:55.192Z,86.20
2019-01-17T04:48:24.390Z,85.70
2019-01-17T04:50:53.502Z,86.20
2019-01-17T04:53:22.602Z,86.10
2019-01-17T04:55:51.737Z,86.20
2019-01-17T04:58:20.833Z,86.00
2019-01-17T05:00:50.048Z,86.00
2019-01-17T05:03:19.205Z,86.30
2019-01-17T05:05:48.309Z,86.40
2019-01-17T05:08:17.420Z,86.20
2019-01-17T05:10:46.558Z,86.10
2019-01-17T05:13:15.667Z,86.30
2019-01-17T05:15:44.786Z,86.80
2019-01-17T05:18:13.900Z,86.80
2019-01-17T05:20:43.033Z,86.80
2019-01-17T05:23:12.177Z,87.10
2019-01-17T05:25:41.327Z,87.00
2019-01-17T05:28:10.471Z,86.90
2019-01-17T05:30:39.570Z,86.80
2019-01-17T05:33:08.725Z,87.10
2019-01-17T05:35:37.829Z,86.90
2019-01-17T05:38:06.945Z,86.90
2019-01-17T05:40:36.117Z,86.90
2019-01-17T05:43:05.320Z,86.30
2019-01-17T05:45:34.414Z,86.70
2019-01-17T05:48:03.552Z,86.50
2019-01-17T05:50:32.681Z,86.70
2019-01-17T05:53:01.841Z,86.10
2019-01-17T05:55:30.928Z,86.20
2019-01-17T05:58:00.106Z,86.20
2019-01-17T06:00:29.216Z,86.10
2019-01-17T06:02:58.376Z,85.90
2019-01-17T06:05:27.508Z,86.20
2019-01-17T06:07:56.680Z,86.30
2019-01-17T06:10:25.773Z,85.90
2019-01-17T06:12:56.089Z,86.00
2019-01-17T06:15:25.893Z,86.00
2019-01-17T06:17:55.013Z,86.00
2019-01-17T06:20:24.241Z,85.50
2019-01-17T06:22:53.422Z,85.70
2019-01-17T06:25:27.981Z,85.20
2019-01-17T06:27:53.581Z,85.30
2019-01-17T06:30:22.760Z,85.00
2019-01-17T06:32:51.876Z,84.70
2019-01-17T06:35:21.033Z,84.40
2019-01-17T06:37:50.161Z,84.70
2019-01-17T06:40:25.239Z,84.60
2019-01-17T06:42:54.372Z,84.20
2019-01-17T06:45:23.482Z,84.40
2019-01-17T06:47:52.741Z,84.10
2019-01-17T06:50:21.956Z,84.60
2019-01-17T06:52:51.073Z,84.90
2019-01-17T06:55:20.252Z,84.60
2019-01-17T06:57:49.530Z,84.70
2019-01-17T07:00:18.891Z,84.70
2019-01-17T07:02:48.107Z,84.80
2019-01-17T07:05:17.625Z,84.40
2019-01-17T07:07:46.756Z,84.10
2019-01-17T07:10:16.766Z,84.10
2019-01-17T07:12:46.208Z,84.00
2019-01-17T07:15:15.536Z,83.70
2019-01-17T07:17:44.761Z,84.00
2019-01-17T07:20:15.533Z,83.60
2019-01-17T07:22:44.730Z,83.40
2019-01-17T07:25:13.846Z,83.50
2019-01-17T07:27:42.969Z,83.20
2019-01-17T07:30:17.961Z,82.60
2019-01-17T07:32:47.061Z,82.40
2019-01-17T07:35:16.269Z,81.70
2019-01-17T07:37:45.373Z,81.90
2019-01-17T07:40:15.086Z,81.30
2019-01-17T07:42:44.248Z,80.80
2019-01-17T07:45:19.737Z,79.90
2019-01-17T07:47:48.958Z,80.20
2019-01-17T07:50:18.065Z,79.90
2019-01-17T07:52:47.218Z,79.60
2019-01-17T07:55:16.523Z,79.30
2019-01-17T07:57:45.779Z,78.90
2019-01-17T08:00:17.478Z,78.60
2019-01-17T08:02:46.582Z,78.20
2019-01-17T08:05:15.781Z,78.40
2019-01-17T08:07:44.905Z,78.60
2019-01-17T08:10:15.486Z,78.60
2019-01-17T08:12:45.133Z,77.80
2019-01-17T08:15:14.697Z,77.80
2019-01-17T08:17:43.872Z,78.00
2019-01-17T08:20:16.007Z,78.30
2019-01-17T08:22:45.192Z,78.30
2019-01-17T08:25:14.343Z,78.40
2019-01-17T08:27:44.502Z,78.10
2019-01-17T08:30:16.193Z,79.10
2019-01-17T08:32:45.296Z,78.80
2019-01-17T08:35:14.855Z,78.80
2019-01-17T08:37:43.986Z,79.00
2019-01-17T08:40:20.474Z,79.10
2019-01-17T08:42:49.745Z,79.40
2019-01-17T08:45:18.920Z,80.00
2019-01-17T08:47:48.172Z,80.10
2019-01-17T08:50:17.761Z,79.90
2019-01-17T08:52:46.913Z,80.00
2019-01-17T08:55:16.092Z,79.80
2019-01-17T08:57:45.517Z,79.90
2019-01-17T09:00:17.126Z,80.20
2019-01-17T09:02:46.301Z,80.20
2019-01-17T09:05:18.402Z,80.20
2019-01-17T09:07:47.535Z,80.70
2019-01-17T09:10:22.113Z,80.50
2019-01-17T09:12:51.497Z,80.70
2019-01-17T09:15:22.281Z,80.40
2019-01-17T09:17:51.376Z,80.10
2019-01-17T09:20:20.510Z,80.80
2019-01-17T09:22:49.744Z,81.40
2019-01-17T09:25:18.841Z,81.00
2019-01-17T09:27:47.967Z,80.80
2019-01-17T09:30:18.126Z,80.90
2019-01-17T09:32:47.251Z,80.70
2019-01-17T09:35:16.661Z,80.70
2019-01-17T09:37:45.890Z,80.60
2019-01-17T09:40:16.896Z,80.20
2019-01-17T09:42:46.072Z,79.20
2019-01-17T09:45:15.365Z,79.60
2019-01-17T09:47:44.509Z,79.00
2019-01-17T09:50:15.981Z,78.60
2019-01-17T09:52:45.305Z,78.00
2019-01-17T09:55:16.925Z,77.60
2019-01-17T09:57:46.022Z,77.80
2019-01-17T10:00:20.393Z,77.70
2019-01-17T10:02:49.491Z,77.40
2019-01-17T10:05:20.973Z,77.80
2019-01-17T10:07:50.144Z,77.60
2019-01-17T10:10:19.661Z,78.00
2019-01-17T10:12:50.574Z,77.90
2019-01-17T10:15:26.226Z,77.60
2019-01-17T10:18:18.454Z,77.30
2019-01-17T10:21:43.806Z,77.00
2019-01-17T10:24:47.668Z,77.00
2019-01-17T10:27:42.467Z,76.40
2019-01-17T10:30:38.283Z,76.00
2019-01-17T10:33:21.623Z,75.90
2019-01-17T10:36:30.926Z,76.40
2019-01-17T10:39:27.120Z,76.70
2019-01-17T10:42:23.114Z,76.50
2019-01-17T10:45:34.946Z,75.90
2019-01-17T10:48:29.778Z,75.30
2019-01-17T10:51:44.295Z,74.40
2019-01-17T10:54:35.950Z,75.20
2019-01-17T10:57:41.126Z,75.00
2019-01-17T11:00:29.234Z,74.40
2019-01-17T11:03:47.198Z,74.20
2019-01-17T11:06:42.618Z,74.40
2019-01-17T11:09:52.078Z,73.70
2019-01-17T11:12:36.182Z,74.20
2019-01-17T11:15:31.894Z,75.00
2019-01-17T11:18:26.133Z,76.30
2019-01-17T11:21:31.970Z,77.90
2019-01-17T11:24:23.271Z,77.40
2019-01-17T11:27:27.078Z,77.10
2019-01-17T11:30:36.134Z,77.90
2019-01-17T11:33:32.338Z,77.50
2019-01-17T11:36:44.945Z,78.60
2019-01-17T11:39:34.750Z,78.20
2019-01-17T11:42:22.969Z,78.60
2019-01-17T11:45:00.026Z,79.00
2019-01-17T11:48:00.389Z,78.70
2019-01-17T11:51:16.958Z,78.90
2019-01-17T11:54:33.751Z,78.10
2019-01-17T11:57:41.757Z,78.20
2019-01-17T12:01:07.295Z,78.40
2019-01-17T12:04:17.162Z,77.80
2019-01-17T12:06:46.316Z,78.00
2019-01-17T12:09:15.559Z,78.60
2019-01-17T12:11:44.722Z,78.20
2019-01-17T12:14:13.950Z,78.40
2019-01-17T12:16:43.223Z,78.60
2019-01-17T12:19:12.603Z,78.80
2019-01-17T12:21:41.818Z,78.90
2019-01-17T12:24:10.939Z,78.60
2019-01-17T12:26:40.067Z,78.90
2019-01-17T12:29:09.413Z,79.00
2019-01-17T12:31:38.574Z,79.10
2019-01-17T12:34:07.754Z,79.70
2019-01-17T12:36:36.940Z,79.70
2019-01-17T12:39:09.199Z,80.10
2019-01-17T12:41:38.659Z,79.90
2019-01-17T12:44:07.905Z,80.70
2019-01-17T12:46:37.141Z,81.00
2019-01-17T12:49:06.322Z,81.30
2019-01-17T12:51:35.502Z,81.60
2019-01-17T12:54:04.874Z,81.70
2019-01-17T12:56:34.126Z,82.40
2019-01-17T12:59:03.278Z,82.60
2019-01-17T13:01:32.455Z,82.70
2019-01-17T13:04:01.722Z,83.10
2019-01-17T13:06:30.978Z,83.20
2019-01-17T13:09:00.108Z,83.30
2019-01-17T13:11:31.285Z,83.40
2019-01-17T13:14:00.534Z,83.90
2019-01-17T13:16:29.744Z,84.10
2019-01-17T13:18:58.913Z,84.10
2019-01-17T13:21:28.146Z,84.40
2019-01-17T13:23:57.293Z,84.80
2019-01-17T13:26:26.482Z,84.90
2019-01-17T13:28:55.781Z,85.50
2019-01-17T13:31:25.070Z,85.30
2019-01-17T13:33:54.502Z,85.70
2019-01-17T13:36:23.671Z,85.80
2019-01-17T13:38:52.898Z,85.70
2019-01-17T13:41:22.119Z,86.20
2019-01-17T13:43:51.406Z,86.40
2019-01-17T13:46:20.722Z,86.90
2019-01-17T13:48:49.935Z,86.20
2019-01-17T13:51:19.115Z,86.20
2019-01-17T13:53:48.262Z,86.30
2019-01-17T13:56:17.434Z,86.30
2019-01-17T13:58:46.582Z,86.20
2019-01-17T14:01:15.872Z,86.60
2019-01-17T14:03:45.085Z,86.30
2019-01-17T14:06:14.385Z,86.60
2019-01-17T14:08:43.594Z,86.40
2019-01-17T14:11:12.734Z,86.50
2019-01-17T14:13:41.974Z,86.80
2019-01-17T14:16:11.102Z,86.80
2019-01-17T14:18:40.265Z,87.00
2019-01-17T14:21:09.765Z,87.30
2019-01-17T14:23:38.963Z,87.50
2019-01-17T14:26:08.146Z,87.30
2019-01-17T14:28:37.307Z,87.60
2019-01-17T14:31:06.525Z,87.90
2019-01-17T14:33:35.717Z,87.70
2019-01-17T14:36:05.422Z,87.70
2019-01-17T14:38:34.516Z,87.70
2019-01-17T14:41:03.644Z,87.70
2019-01-17T14:43:32.857Z,87.60
2019-01-17T14:46:01.960Z,87.60
2019-01-17T14:48:31.074Z,87.60
2019-01-17T14:51:00.216Z,87.70
2019-01-17T14:53:29.320Z,87.80
2019-01-17T14:55:58.474Z,87.70
2019-01-17T14:58:27.592Z,87.60
2019-01-17T15:00:56.951Z,88.00
2019-01-17T15:03:26.073Z,88.10
2019-01-17T15:05:55.238Z,88.30
2019-01-17T15:08:24.436Z,88.50
2019-01-17T15:10:53.554Z,88.70
2019-01-17T15:13:22.665Z,89.00
2019-01-17T15:15:51.810Z,88.60
2019-01-17T15:18:21.049Z,88.60
2019-01-17T15:20:50.164Z,88.60
2019-01-17T15:23:19.273Z,88.60
2019-01-17T15:25:48.427Z,88.50
2019-01-17T15:28:17.529Z,88.40
2019-01-17T15:30:46.641Z,88.50
2019-01-17T15:33:15.793Z,88.40
2019-01-17T15:35:45.091Z,88.90
2019-01-17T15:38:14.216Z,88.50
2019-01-17T15:40:43.341Z,88.50
2019-01-17T15:43:12.530Z,88.30
2019-01-17T15:45:41.681Z,88.30
2019-01-17T15:48:10.805Z,88.40
2019-01-17T15:50:39.955Z,87.60
2019-01-17T15:53:09.074Z,87.90
2019-01-17T15:55:38.256Z,88.20
2019-01-17T15:58:07.415Z,88.10
2019-01-17T16:00:36.601Z,88.50
2019-01-17T16:03:05.708Z,88.80
2019-01-17T16:05:35.087Z,89.10
2019-01-17T16:08:04.189Z,89.00
2019-01-17T16:10:33.509Z,89.00
2019-01-17T16:13:02.720Z,89.20
2019-01-17T16:15:31.858Z,89.10
2019-01-17T16:18:00.965Z,88.90
2019-01-17T16:20:30.110Z,88.90
2019-01-17T16:22:59.306Z,88.50
2019-01-17T16:25:28.427Z,88.60
2019-01-17T16:27:57.673Z,88.40
2019-01-17T16:30:31.586Z,89.10
2019-01-17T16:33:00.704Z,88.60
2019-01-17T16:35:29.830Z,89.10
2019-01-17T16:37:58.982Z,89.40
2019-01-17T16:40:28.203Z,89.50
2019-01-17T16:42:57.371Z,89.80
2019-01-17T16:45:26.493Z,89.70
2019-01-17T16:47:55.601Z,89.90
2019-01-17T16:50:26.362Z,90.10
2019-01-17T16:52:55.489Z,90.20
2019-01-17T16:55:24.597Z,90.30
2019-01-17T16:57:53.786Z,90.40
2019-01-17T17:00:29.370Z,90.50
2019-01-17T17:02:58.493Z,90.50
2019-01-17T17:05:27.608Z,90.40
2019-01-17T17:07:56.737Z,90.40
2019-01-17T17:10:25.849Z,90.40
2019-01-17T17:12:54.957Z,90.40
2019-01-17T17:15:24.297Z,90.40
2019-01-17T17:17:53.508Z,90.50
2019-01-17T17:20:22.841Z,90.40
2019-01-17T17:22:51.957Z,90.40
2019-01-17T17:25:21.069Z,90.30
2019-01-17T17:27:55.495Z,90.10
2019-01-17T17:30:22.878Z,90.30
2019-01-17T17:32:52.164Z,90.10
2019-01-17T17:35:21.370Z,90.10
2019-01-17T17:37:50.523Z,90.20
2019-01-17T17:40:22.017Z,90.20
2019-01-17T17:42:51.137Z,90.60
2019-01-17T17:45:20.292Z,90.40
2019-01-17T17:47:49.425Z,90.40
2019-01-17T17:50:19.717Z,90.50
2019-01-17T17:52:48.852Z,90.40
2019-01-17T17:55:18.005Z,90.50
2019-01-17T17:57:47.202Z,90.40
2019-01-17T18:00:24.393Z,90.60
2019-01-17T18:02:54.016Z,90.50
2019-01-17T18:05:23.347Z,90.50
2019-01-17T18:07:52.548Z,90.50
2019-01-17T18:10:21.992Z,90.40
2019-01-17T18:12:51.181Z,90.40
2019-01-17T18:15:20.614Z,90.50
2019-01-17T18:17:49.792Z,90.50
2019-01-17T18:20:19.049Z,90.50
2019-01-17T18:22:48.285Z,90.50
2019-01-17T18:25:17.477Z,90.50
2019-01-17T18:27:46.593Z,90.50
2019-01-17T18:30:21.006Z,90.60
2019-01-17T18:32:50.140Z,90.60
2019-01-17T18:35:19.423Z,90.60
2019-01-17T18:37:48.847Z,90.70
2019-01-17T18:40:18.489Z,90.80
2019-01-17T18:42:47.994Z,90.90
2019-01-17T18:45:19.051Z,90.80
2019-01-17T18:47:48.174Z,90.80
2019-01-17T18:50:19.640Z,90.90
2019-01-17T18:52:48.749Z,90.90
2019-01-17T18:55:17.944Z,90.90
2019-01-17T18:57:47.068Z,90.90
2019-01-17T19:00:29.376Z,90.90
2019-01-17T19:02:58.564Z,90.90
2019-01-17T19:05:27.736Z,90.90
2019-01-17T19:07:56.934Z,90.90
2019-01-17T19:10:26.045Z,90.80
2019-01-17T19:12:55.171Z,90.90
2019-01-17T19:15:26.789Z,90.80
2019-01-17T19:17:56.110Z,90.80
2019-01-17T19:20:25.297Z,90.80
2019-01-17T19:22:54.468Z,90.90
2019-01-17T19:25:23.589Z,90.80
2019-01-17T19:27:52.698Z,90.80
2019-01-17T19:30:24.066Z,90.90
2019-01-17T19:32:53.381Z,90.90
2019-01-17T19:35:22.608Z,90.90
2019-01-17T19:37:51.885Z,90.90
2019-01-17T19:40:22.781Z,91.00
2019-01-17T19:42:51.985Z,91.00
2019-01-17T19:45:21.325Z,90.80
2019-01-17T19:47:50.432Z,90.90
2019-01-17T19:50:27.889Z,91.20
2019-01-17T19:52:57.001Z,90.80
2019-01-17T19:55:26.150Z,91.00
2019-01-17T19:57:55.294Z,90.90
2019-01-17T20:00:24.777Z,90.90
2019-01-17T20:02:54.031Z,90.90
2019-01-17T20:05:23.997Z,91.00
2019-01-17T20:07:53.337Z,90.90
2019-01-17T20:10:27.448Z,90.90
2019-01-17T20:12:56.613Z,90.90
2019-01-17T20:15:25.729Z,90.80
2019-01-17T20:17:54.962Z,90.80
2019-01-17T20:20:24.134Z,90.70
2019-01-17T20:22:53.489Z,90.80
2019-01-17T20:25:22.704Z,90.70
2019-01-17T20:27:51.961Z,90.60
2019-01-17T20:30:23.481Z,90.50
2019-01-17T20:32:52.956Z,90.70
2019-01-17T20:35:22.136Z,90.70
2019-01-17T20:37:51.266Z,90.70
2019-01-17T20:40:22.021Z,90.60
2019-01-17T20:42:51.218Z,90.60
2019-01-17T20:45:20.731Z,90.40
2019-01-17T20:47:49.978Z,90.40
2019-01-17T20:50:21.503Z,90.40
2019-01-17T20:52:50.613Z,90.30
2019-01-17T20:55:19.753Z,90.20
2019-01-17T20:57:50.462Z,90.10
2019-01-17T21:01:05.625Z,90.10
2019-01-17T21:03:35.301Z,90.10
2019-01-17T21:06:04.485Z,90.00
2019-01-17T21:08:33.614Z,89.90
2019-01-17T21:11:02.726Z,89.70
2019-01-17T21:13:31.853Z,89.30
2019-01-17T21:16:01.425Z,89.30
2019-01-17T21:18:30.762Z,89.10
2019-01-17T21:20:59.916Z,89.10
2019-01-17T21:23:29.140Z,88.90
2019-01-17T21:25:58.280Z,88.80
2019-01-17T21:28:27.429Z,88.90
2019-01-17T21:30:56.572Z,89.90
2019-01-17T21:33:25.681Z,89.00
2019-01-17T21:35:54.845Z,89.20
2019-01-17T21:38:23.953Z,89.10
2019-01-17T21:40:53.092Z,88.90
2019-01-17T21:43:22.233Z,89.10
2019-01-17T21:45:51.353Z,89.20
2019-01-17T21:48:20.474Z,89.30
2019-01-17T21:50:49.633Z,89.30
2019-01-17T21:53:18.737Z,89.70
2019-01-17T21:55:47.869Z,89.60
2019-01-17T21:58:17.029Z,89.90
2019-01-17T22:00:46.146Z,90.00
2019-01-17T22:03:15.255Z,90.10
2019-01-17T22:05:44.408Z,90.20
2019-01-17T22:08:13.550Z,90.40
2019-01-17T22:10:42.669Z,90.50
2019-01-17T22:13:11.798Z,90.50
2019-01-17T22:15:40.924Z,90.60
2019-01-17T22:18:10.062Z,90.70
2019-01-17T22:20:39.188Z,90.80
2019-01-17T22:23:09.065Z,90.80
2019-01-17T22:25:38.221Z,91.00
2019-01-17T22:28:07.338Z,91.20
2019-01-17T22:30:36.444Z,91.30
2019-01-17T22:33:05.601Z,91.20
2019-01-17T22:35:34.701Z,91.40
2019-01-17T22:38:03.801Z,91.50
2019-01-17T22:40:32.942Z,91.50
2019-01-17T22:43:02.052Z,91.60
2019-01-17T22:45:31.548Z,91.60
2019-01-17T22:48:00.714Z,91.50
2019-01-17T22:50:29.830Z,91.50
2019-01-17T22:52:58.951Z,91.50
2019-01-17T22:55:28.105Z,91.50
2019-01-17T22:57:57.204Z,91.40
2019-01-17T23:00:49.254Z,91.40
2019-01-17T23:03:20.227Z,91.30
2019-01-17T23:05:49.369Z,91.30
2019-01-17T23:11:05.662Z,91.20
2019-01-17T23:13:34.818Z,91.10
2019-01-17T23:16:04.478Z,91.20
2019-01-17T23:18:33.615Z,91.10
2019-01-17T23:21:02.758Z,91.10
2019-01-17T23:23:31.880Z,91.10
2019-01-17T23:26:01.114Z,91.10
2019-01-17T23:28:30.259Z,91.20
2019-01-17T23:30:59.430Z,91.20
2019-01-17T23:33:28.566Z,91.30
2019-01-17T23:35:57.697Z,91.80
2019-01-17T23:38:26.919Z,91.40
2019-01-17T23:40:56.135Z,91.60
2019-01-17T23:43:25.286Z,91.60
2019-01-17T23:45:54.425Z,91.70
2019-01-17T23:48:23.562Z,91.70
2019-01-17T23:50:52.698Z,91.80
2019-01-17T23:53:21.829Z,91.90
2019-01-17T23:55:50.994Z,91.90
2019-01-17T23:58:20.130Z,91.90
